This is the latest recevied weather packets stored in our database for station/object PP5KJ-13. If no packets are shown the sender has not sent any weather packets the latest 10 day(s).
| Time | Temp. | Humidity | Pressure | Rain* | Wind** | Luminosity | Snow |
|---|---|---|---|---|---|---|---|
| 1788463399 | 36.67° C | 5% | 1012 hPa | 0 mm | 3.58 m/s, 19° | - | - |
| 1788462845 | 32.22° C | 5% | 1012 hPa | 0 mm | 3.58 m/s, 19° | - | - |
| 1788462199 | 33.33° C | 5% | 1012 hPa | 0 mm | 6.71 m/s, 10° | - | - |
| 1788461599 | 31.67° C | 5% | 1012 hPa | 0 mm | 6.71 m/s, 10° | - | - |
| 1788461002 | 27.78° C | 5% | 1012 hPa | 0 mm | 6.71 m/s, 10° | - | - |
| 1788460399 | 33.89° C | 5% | 1012 hPa | 0 mm | 6.71 m/s, 10° | - | - |
| 1788459799 | 30.56° C | 5% | 1012 hPa | 0 mm | 6.71 m/s, 10° | - | - |
| 1788459199 | 35.56° C | 5% | 1012 hPa | 0 mm | 6.71 m/s, 10° | - | - |
| 1788458599 | 33.33° C | 5% | 1012 hPa | 0 mm | 3.58 m/s, 15° | - | - |
| 1788457399 | 32.78° C | 5% | 1012 hPa | 0 mm | 3.58 m/s, 16° | - | - |
| 1788456799 | 26.67° C | 5% | 1012 hPa | 0 mm | 3.58 m/s, 16° | - | - |
| 1788456199 | 32.22° C | 5% | 1013 hPa | 0 mm | 7.15 m/s, 340° | - | - |
| 1788455599 | 27.22° C | 5% | 1013 hPa | 0 mm | 7.15 m/s, 340° | - | - |
| 1788454999 | 25.56° C | 5% | 1013 hPa | 0 mm | 7.6 m/s, 350° | - | - |
| 1788454399 | 25° C | 5% | 1013 hPa | 0 mm | 7.6 m/s, 350° | - | - |
| 1788453799 | 26.67° C | 5% | 1013 hPa | 0 mm | 7.6 m/s, 350° | - | - |
| 1788453199 | 26.11° C | 5% | 1014 hPa | 0 mm | 7.6 m/s, 350° | - | - |
| 1788452599 | 25° C | 5% | 1014 hPa | 0 mm | 7.6 m/s, 350° | - | - |
| 1788451999 | 24.44° C | 5% | 1014 hPa | 0 mm | 7.6 m/s, 350° | - | - |
| 1788451399 | 25.56° C | 5% | 1014 hPa | 0 mm | 7.15 m/s, 350° | - | - |
| 1788450798 | 25.56° C | 5% | 1014 hPa | 0 mm | 7.15 m/s, 350° | - | - |
| 1788450201 | 25.56° C | 5% | 1014 hPa | 0 mm | 7.15 m/s, 350° | - | - |
| 1788449598 | 25° C | 5% | 1015 hPa | 0 mm | 7.15 m/s, 350° | - | - |
| 1788448998 | 24.44° C | 5% | 1015 hPa | 0 mm | 7.15 m/s, 350° | - | - |
| 1788448398 | 24.44° C | 5% | 1015 hPa | 0 mm | 7.15 m/s, 350° | - | - |
* Rain latest hour (hover to see other rain measurements)
** Current wind speed in m/s (hover to see current wind gust speed)